sensor_id;sensor_type;location;lat;lon;timestamp;temperature;humidity
30459;DHT22;17254;50.976;7.034;2022-10-16T00:00:04;13.80;99.90
30459;DHT22;17254;50.976;7.034;2022-10-16T00:00:21;13.80;99.90
30459;DHT22;17254;50.976;7.034;2022-10-16T00:00:38;13.80;99.90
30459;DHT22;17254;50.976;7.034;2022-10-16T00:00:54;13.80;99.90
30459;DHT22;17254;50.976;7.034;2022-10-16T00:01:12;13.80;99.90
30459;DHT22;17254;50.976;7.034;2022-10-16T00:01:30;13.80;99.90
30459;DHT22;17254;50.976;7.034;2022-10-16T00:01:47;13.80;99.90
30459;DHT22;17254;50.976;7.034;2022-10-16T00:02:03;13.80;99.90
30459;DHT22;17254;50.976;7.034;2022-10-16T00:02:19;13.70;99.90
30459;DHT22;17254;50.976;7.034;2022-10-16T00:02:35;13.80;99.90
30459;DHT22;17254;50.976;7.034;2022-10-16T00:02:51;13.80;99.90
30459;DHT22;17254;50.976;7.034;2022-10-16T00:03:07;13.70;99.90
30459;DHT22;17254;50.976;7.034;2022-10-16T00:03:24;13.70;99.90
30459;DHT22;17254;50.976;7.034;2022-10-16T00:03:42;13.70;99.90
30459;DHT22;17254;50.976;7.034;2022-10-16T00:04:00;13.70;99.90
30459;DHT22;17254;50.976;7.034;2022-10-16T00:04:16;13.70;99.90
30459;DHT22;17254;50.976;7.034;2022-10-16T00:04:33;13.70;99.90
30459;DHT22;17254;50.976;7.034;2022-10-16T00:04:49;13.70;99.90
30459;DHT22;17254;50.976;7.034;2022-10-16T00:05:06;13.70;99.90
30459;DHT22;17254;50.976;7.034;2022-10-16T00:05:22;13.70;99.90
30459;DHT22;17254;50.976;7.034;2022-10-16T00:05:40;13.70;99.90
30459;DHT22;17254;50.976;7.034;2022-10-16T00:05:59;13.70;99.90
30459;DHT22;17254;50.976;7.034;2022-10-16T00:06:17;13.70;99.90
30459;DHT22;17254;50.976;7.034;2022-10-16T00:06:34;13.70;99.90
30459;DHT22;17254;50.976;7.034;2022-10-16T00:06:50;13.70;99.90
30459;DHT22;17254;50.976;7.034;2022-10-16T00:07:06;13.70;99.90
30459;DHT22;17254;50.976;7.034;2022-10-16T00:07:22;13.70;99.90
30459;DHT22;17254;50.976;7.034;2022-10-16T00:07:38;13.70;99.90
30459;DHT22;17254;50.976;7.034;2022-10-16T00:07:53;13.70;99.90
30459;DHT22;17254;50.976;7.034;2022-10-16T00:08:11;13.70;99.90
30459;DHT22;17254;50.976;7.034;2022-10-16T00:08:28;13.70;99.90
30459;DHT22;17254;50.976;7.034;2022-10-16T00:08:45;13.70;99.90
30459;DHT22;17254;50.976;7.034;2022-10-16T00:09:01;13.70;99.90
30459;DHT22;17254;50.976;7.034;2022-10-16T00:09:18;13.70;99.90
30459;DHT22;17254;50.976;7.034;2022-10-16T00:09:34;13.70;99.90
30459;DHT22;17254;50.976;7.034;2022-10-16T00:09:50;13.70;99.90
30459;DHT22;17254;50.976;7.034;2022-10-16T00:10:07;13.70;99.90
30459;DHT22;17254;50.976;7.034;2022-10-16T00:10:23;13.70;99.90
30459;DHT22;17254;50.976;7.034;2022-10-16T00:10:40;13.70;99.90
30459;DHT22;17254;50.976;7.034;2022-10-16T00:11:00;13.80;99.90
30459;DHT22;17254;50.976;7.034;2022-10-16T00:11:18;13.70;99.90
30459;DHT22;17254;50.976;7.034;2022-10-16T00:11:36;13.80;99.90
30459;DHT22;17254;50.976;7.034;2022-10-16T00:11:53;13.80;99.90
30459;DHT22;17254;50.976;7.034;2022-10-16T00:12:09;13.80;99.90
30459;DHT22;17254;50.976;7.034;2022-10-16T00:12:25;13.80;99.90
30459;DHT22;17254;50.976;7.034;2022-10-16T00:12:41;13.80;99.90
30459;DHT22;17254;50.976;7.034;2022-10-16T00:12:57;13.80;99.90
30459;DHT22;17254;50.976;7.034;2022-10-16T00:13:13;13.80;99.90
30459;DHT22;17254;50.976;7.034;2022-10-16T00:13:29;13.70;99.90
30459;DHT22;17254;50.976;7.034;2022-10-16T00:13:47;13.70;99.90
30459;DHT22;17254;50.976;7.034;2022-10-16T00:14:05;13.80;99.90
30459;DHT22;17254;50.976;7.034;2022-10-16T00:14:22;13.70;99.90
30459;DHT22;17254;50.976;7.034;2022-10-16T00:14:37;13.80;99.90
30459;DHT22;17254;50.976;7.034;2022-10-16T00:14:56;13.80;99.90
30459;DHT22;17254;50.976;7.034;2022-10-16T00:15:12;13.80;99.90
30459;DHT22;17254;50.976;7.034;2022-10-16T00:15:30;13.80;99.90
30459;DHT22;17254;50.976;7.034;2022-10-16T00:15:46;13.80;99.90
30459;DHT22;17254;50.976;7.034;2022-10-16T00:16:02;13.80;99.90
30459;DHT22;17254;50.976;7.034;2022-10-16T00:16:19;13.80;99.90
30459;DHT22;17254;50.976;7.034;2022-10-16T00:16:36;13.80;99.90
30459;DHT22;17254;50.976;7.034;2022-10-16T00:16:52;13.70;99.90
30459;DHT22;17254;50.976;7.034;2022-10-16T00:17:08;13.70;99.90
30459;DHT22;17254;50.976;7.034;2022-10-16T00:17:24;13.80;99.90
30459;DHT22;17254;50.976;7.034;2022-10-16T00:17:41;13.70;99.90
30459;DHT22;17254;50.976;7.034;2022-10-16T00:17:56;13.80;99.90
30459;DHT22;17254;50.976;7.034;2022-10-16T00:18:12;13.80;99.90
30459;DHT22;17254;50.976;7.034;2022-10-16T00:18:30;13.80;99.90
30459;DHT22;17254;50.976;7.034;2022-10-16T00:18:45;13.70;99.90
30459;DHT22;17254;50.976;7.034;2022-10-16T00:19:02;13.70;99.90
30459;DHT22;17254;50.976;7.034;2022-10-16T00:19:18;13.80;99.90
30459;DHT22;17254;50.976;7.034;2022-10-16T00:19:35;13.70;99.90
30459;DHT22;17254;50.976;7.034;2022-10-16T00:19:51;13.80;99.90
30459;DHT22;17254;50.976;7.034;2022-10-16T00:20:07;13.70;99.90
30459;DHT22;17254;50.976;7.034;2022-10-16T00:20:23;13.80;99.90
30459;DHT22;17254;50.976;7.034;2022-10-16T00:20:39;13.70;99.90
30459;DHT22;17254;50.976;7.034;2022-10-16T00:20:55;13.80;99.90
30459;DHT22;17254;50.976;7.034;2022-10-16T00:21:12;13.80;99.90
30459;DHT22;17254;50.976;7.034;2022-10-16T00:21:29;13.70;99.90
30459;DHT22;17254;50.976;7.034;2022-10-16T00:21:45;13.70;99.90
30459;DHT22;17254;50.976;7.034;2022-10-16T00:22:01;13.70;99.90
30459;DHT22;17254;50.976;7.034;2022-10-16T00:22:17;13.70;99.90
30459;DHT22;17254;50.976;7.034;2022-10-16T00:22:33;13.70;99.90
30459;DHT22;17254;50.976;7.034;2022-10-16T00:22:49;13.70;99.90
30459;DHT22;17254;50.976;7.034;2022-10-16T00:23:05;13.70;99.90
30459;DHT22;17254;50.976;7.034;2022-10-16T00:23:21;13.70;99.90
30459;DHT22;17254;50.976;7.034;2022-10-16T00:23:37;13.70;99.90
30459;DHT22;17254;50.976;7.034;2022-10-16T00:23:54;13.70;99.90
30459;DHT22;17254;50.976;7.034;2022-10-16T00:24:10;13.70;99.90
30459;DHT22;17254;50.976;7.034;2022-10-16T00:24:26;13.70;99.90
30459;DHT22;17254;50.976;7.034;2022-10-16T00:24:41;13.70;99.90
30459;DHT22;17254;50.976;7.034;2022-10-16T00:24:57;13.70;99.90
30459;DHT22;17254;50.976;7.034;2022-10-16T00:25:14;13.70;99.90
30459;DHT22;17254;50.976;7.034;2022-10-16T00:25:30;13.70;99.90
30459;DHT22;17254;50.976;7.034;2022-10-16T00:25:54;13.70;99.90
30459;DHT22;17254;50.976;7.034;2022-10-16T00:26:12;13.80;99.90
30459;DHT22;17254;50.976;7.034;2022-10-16T00:26:29;13.80;99.90
30459;DHT22;17254;50.976;7.034;2022-10-16T00:26:45;13.80;99.90
30459;DHT22;17254;50.976;7.034;2022-10-16T00:27:04;13.80;99.90
30459;DHT22;17254;50.976;7.034;2022-10-16T00:27:20;13.80;99.90
30459;DHT22;17254;50.976;7.034;2022-10-16T00:27:36;13.80;99.90
30459;DHT22;17254;50.976;7.034;2022-10-16T00:27:52;13.80;99.90
30459;DHT22;17254;50.976;7.034;2022-10-16T00:28:07;13.80;99.90
30459;DHT22;17254;50.976;7.034;2022-10-16T00:28:24;13.70;99.90
30459;DHT22;17254;50.976;7.034;2022-10-16T00:28:40;13.70;99.90
30459;DHT22;17254;50.976;7.034;2022-10-16T00:28:56;13.70;99.90
30459;DHT22;17254;50.976;7.034;2022-10-16T00:29:11;13.70;99.90
30459;DHT22;17254;50.976;7.034;2022-10-16T00:29:27;13.70;99.90
30459;DHT22;17254;50.976;7.034;2022-10-16T00:29:43;13.70;99.90
30459;DHT22;17254;50.976;7.034;2022-10-16T00:30:00;13.70;99.90
30459;DHT22;17254;50.976;7.034;2022-10-16T00:30:16;13.70;99.90
30459;DHT22;17254;50.976;7.034;2022-10-16T00:30:31;13.70;99.90
30459;DHT22;17254;50.976;7.034;2022-10-16T00:30:47;13.70;99.90
30459;DHT22;17254;50.976;7.034;2022-10-16T00:31:03;13.70;99.90
30459;DHT22;17254;50.976;7.034;2022-10-16T00:31:20;13.70;99.90
30459;DHT22;17254;50.976;7.034;2022-10-16T00:31:37;13.70;99.90
30459;DHT22;17254;50.976;7.034;2022-10-16T00:31:52;13.70;99.90
30459;DHT22;17254;50.976;7.034;2022-10-16T00:32:08;13.70;99.90
30459;DHT22;17254;50.976;7.034;2022-10-16T00:32:24;13.70;99.90
30459;DHT22;17254;50.976;7.034;2022-10-16T00:32:41;13.70;99.90
30459;DHT22;17254;50.976;7.034;2022-10-16T00:32:56;13.70;99.90
30459;DHT22;17254;50.976;7.034;2022-10-16T00:33:12;13.70;99.90
30459;DHT22;17254;50.976;7.034;2022-10-16T00:33:28;13.70;99.90
30459;DHT22;17254;50.976;7.034;2022-10-16T00:33:44;13.70;99.90
30459;DHT22;17254;50.976;7.034;2022-10-16T00:34:01;13.70;99.90
30459;DHT22;17254;50.976;7.034;2022-10-16T00:34:16;13.70;99.90
30459;DHT22;17254;50.976;7.034;2022-10-16T00:34:32;13.60;99.90
30459;DHT22;17254;50.976;7.034;2022-10-16T00:34:49;13.70;99.90
30459;DHT22;17254;50.976;7.034;2022-10-16T00:35:05;13.70;99.90
30459;DHT22;17254;50.976;7.034;2022-10-16T00:35:22;13.70;99.90
30459;DHT22;17254;50.976;7.034;2022-10-16T00:35:38;13.70;99.90
30459;DHT22;17254;50.976;7.034;2022-10-16T00:35:53;13.70;99.90
30459;DHT22;17254;50.976;7.034;2022-10-16T00:36:10;13.70;99.90
30459;DHT22;17254;50.976;7.034;2022-10-16T00:36:26;13.70;99.90
30459;DHT22;17254;50.976;7.034;2022-10-16T00:36:43;13.70;99.90
30459;DHT22;17254;50.976;7.034;2022-10-16T00:36:59;13.70;99.90
30459;DHT22;17254;50.976;7.034;2022-10-16T00:37:14;13.70;99.90
30459;DHT22;17254;50.976;7.034;2022-10-16T00:37:30;13.70;99.90
30459;DHT22;17254;50.976;7.034;2022-10-16T00:37:46;13.70;99.90
30459;DHT22;17254;50.976;7.034;2022-10-16T00:38:03;13.60;99.90
30459;DHT22;17254;50.976;7.034;2022-10-16T00:38:18;13.70;99.90
30459;DHT22;17254;50.976;7.034;2022-10-16T00:38:34;13.60;99.90
30459;DHT22;17254;50.976;7.034;2022-10-16T00:38:50;13.60;99.90
30459;DHT22;17254;50.976;7.034;2022-10-16T00:39:09;13.50;99.90
30459;DHT22;17254;50.976;7.034;2022-10-16T00:39:25;13.60;99.90
30459;DHT22;17254;50.976;7.034;2022-10-16T00:39:41;13.50;99.90
30459;DHT22;17254;50.976;7.034;2022-10-16T00:39:57;13.60;99.90
30459;DHT22;17254;50.976;7.034;2022-10-16T00:40:13;13.50;99.90
30459;DHT22;17254;50.976;7.034;2022-10-16T00:40:29;13.50;99.90
30459;DHT22;17254;50.976;7.034;2022-10-16T00:40:45;13.50;99.90
30459;DHT22;17254;50.976;7.034;2022-10-16T00:41:02;13.50;99.90
30459;DHT22;17254;50.976;7.034;2022-10-16T00:41:18;13.50;99.90
30459;DHT22;17254;50.976;7.034;2022-10-16T00:41:34;13.50;99.90
30459;DHT22;17254;50.976;7.034;2022-10-16T00:41:50;13.50;99.90
30459;DHT22;17254;50.976;7.034;2022-10-16T00:42:06;13.50;99.90
30459;DHT22;17254;50.976;7.034;2022-10-16T00:42:23;13.50;99.90
30459;DHT22;17254;50.976;7.034;2022-10-16T00:42:39;13.50;99.90
30459;DHT22;17254;50.976;7.034;2022-10-16T00:42:55;13.50;99.90
30459;DHT22;17254;50.976;7.034;2022-10-16T00:43:14;13.40;99.90
30459;DHT22;17254;50.976;7.034;2022-10-16T00:43:36;13.40;99.90
30459;DHT22;17254;50.976;7.034;2022-10-16T00:43:54;13.40;99.90
30459;DHT22;17254;50.976;7.034;2022-10-16T00:44:43;13.40;99.90
30459;DHT22;17254;50.976;7.034;2022-10-16T00:44:59;13.30;99.90
30459;DHT22;17254;50.976;7.034;2022-10-16T00:45:15;13.30;99.90
30459;DHT22;17254;50.976;7.034;2022-10-16T00:45:32;13.30;99.90
30459;DHT22;17254;50.976;7.034;2022-10-16T00:45:48;13.20;99.90
30459;DHT22;17254;50.976;7.034;2022-10-16T00:46:09;13.20;99.90
30459;DHT22;17254;50.976;7.034;2022-10-16T00:46:28;13.20;99.90
30459;DHT22;17254;50.976;7.034;2022-10-16T00:46:44;13.20;99.90
30459;DHT22;17254;50.976;7.034;2022-10-16T00:47:01;13.20;99.90
30459;DHT22;17254;50.976;7.034;2022-10-16T00:47:21;13.20;99.90
30459;DHT22;17254;50.976;7.034;2022-10-16T00:47:41;13.20;99.90
30459;DHT22;17254;50.976;7.034;2022-10-16T00:47:57;13.10;99.90
30459;DHT22;17254;50.976;7.034;2022-10-16T00:48:21;13.10;99.90
30459;DHT22;17254;50.976;7.034;2022-10-16T00:48:38;13.10;99.90
30459;DHT22;17254;50.976;7.034;2022-10-16T00:48:58;13.10;99.90
30459;DHT22;17254;50.976;7.034;2022-10-16T00:49:18;13.10;99.90
30459;DHT22;17254;50.976;7.034;2022-10-16T00:49:34;13.10;99.90
30459;DHT22;17254;50.976;7.034;2022-10-16T00:49:57;13.00;99.90
30459;DHT22;17254;50.976;7.034;2022-10-16T00:50:20;13.00;99.90
30459;DHT22;17254;50.976;7.034;2022-10-16T00:50:37;13.00;99.90
30459;DHT22;17254;50.976;7.034;2022-10-16T00:50:55;12.90;99.90
30459;DHT22;17254;50.976;7.034;2022-10-16T00:51:12;13.00;99.90
30459;DHT22;17254;50.976;7.034;2022-10-16T00:51:31;13.00;99.90
30459;DHT22;17254;50.976;7.034;2022-10-16T00:51:51;12.90;99.90
30459;DHT22;17254;50.976;7.034;2022-10-16T00:52:08;12.90;99.90
30459;DHT22;17254;50.976;7.034;2022-10-16T00:52:24;12.90;99.90
30459;DHT22;17254;50.976;7.034;2022-10-16T00:52:43;13.00;99.90
30459;DHT22;17254;50.976;7.034;2022-10-16T00:53:01;13.00;99.90
30459;DHT22;17254;50.976;7.034;2022-10-16T00:53:18;13.00;99.90
30459;DHT22;17254;50.976;7.034;2022-10-16T00:53:35;13.00;99.90
30459;DHT22;17254;50.976;7.034;2022-10-16T00:53:52;12.90;99.90
30459;DHT22;17254;50.976;7.034;2022-10-16T00:54:10;12.90;99.90
30459;DHT22;17254;50.976;7.034;2022-10-16T00:54:29;12.90;99.90
30459;DHT22;17254;50.976;7.034;2022-10-16T00:54:46;12.90;99.90
30459;DHT22;17254;50.976;7.034;2022-10-16T00:55:05;12.90;99.90
30459;DHT22;17254;50.976;7.034;2022-10-16T00:55:21;12.90;99.90
30459;DHT22;17254;50.976;7.034;2022-10-16T00:55:37;12.90;99.90
30459;DHT22;17254;50.976;7.034;2022-10-16T00:55:54;12.90;99.90
30459;DHT22;17254;50.976;7.034;2022-10-16T00:56:10;12.90;99.90
30459;DHT22;17254;50.976;7.034;2022-10-16T00:56:27;12.90;99.90
30459;DHT22;17254;50.976;7.034;2022-10-16T00:56:44;12.80;99.90
30459;DHT22;17254;50.976;7.034;2022-10-16T00:57:02;12.80;99.90
30459;DHT22;17254;50.976;7.034;2022-10-16T00:57:19;12.80;99.90
30459;DHT22;17254;50.976;7.034;2022-10-16T00:57:36;12.80;99.90
30459;DHT22;17254;50.976;7.034;2022-10-16T00:57:54;12.90;99.90
30459;DHT22;17254;50.976;7.034;2022-10-16T00:58:11;12.80;99.90
30459;DHT22;17254;50.976;7.034;2022-10-16T00:58:27;12.80;99.90
30459;DHT22;17254;50.976;7.034;2022-10-16T00:58:43;12.80;99.90
30459;DHT22;17254;50.976;7.034;2022-10-16T00:59:00;12.80;99.90
30459;DHT22;17254;50.976;7.034;2022-10-16T00:59:22;12.80;99.90
30459;DHT22;17254;50.976;7.034;2022-10-16T00:59:41;12.80;99.90
30459;DHT22;17254;50.976;7.034;2022-10-16T00:59:57;12.80;99.90
30459;DHT22;17254;50.976;7.034;2022-10-16T01:00:17;12.80;99.90
30459;DHT22;17254;50.976;7.034;2022-10-16T01:00:33;12.70;99.90
30459;DHT22;17254;50.976;7.034;2022-10-16T01:00:49;12.70;99.90
30459;DHT22;17254;50.976;7.034;2022-10-16T01:01:06;12.70;99.90
30459;DHT22;17254;50.976;7.034;2022-10-16T01:01:22;12.70;99.90
30459;DHT22;17254;50.976;7.034;2022-10-16T01:01:38;12.70;99.90
30459;DHT22;17254;50.976;7.034;2022-10-16T01:01:55;12.70;99.90
30459;DHT22;17254;50.976;7.034;2022-10-16T01:02:13;12.70;99.90
30459;DHT22;17254;50.976;7.034;2022-10-16T01:02:29;12.70;99.90
30459;DHT22;17254;50.976;7.034;2022-10-16T01:02:52;12.60;99.90
30459;DHT22;17254;50.976;7.034;2022-10-16T01:03:23;12.60;99.90
30459;DHT22;17254;50.976;7.034;2022-10-16T01:03:40;12.60;99.90
30459;DHT22;17254;50.976;7.034;2022-10-16T01:03:56;12.60;99.90
30459;DHT22;17254;50.976;7.034;2022-10-16T01:04:12;12.60;99.90
30459;DHT22;17254;50.976;7.034;2022-10-16T01:04:32;12.60;99.90
30459;DHT22;17254;50.976;7.034;2022-10-16T01:04:52;12.60;99.90
30459;DHT22;17254;50.976;7.034;2022-10-16T01:05:09;12.60;99.90
30459;DHT22;17254;50.976;7.034;2022-10-16T01:05:30;12.60;99.90
30459;DHT22;17254;50.976;7.034;2022-10-16T01:05:58;12.60;99.90
30459;DHT22;17254;50.976;7.034;2022-10-16T01:06:23;12.60;99.90
30459;DHT22;17254;50.976;7.034;2022-10-16T01:06:46;12.60;99.90
30459;DHT22;17254;50.976;7.034;2022-10-16T01:07:09;12.70;99.90
30459;DHT22;17254;50.976;7.034;2022-10-16T01:07:36;12.70;99.90
30459;DHT22;17254;50.976;7.034;2022-10-16T01:07:58;12.70;99.90
30459;DHT22;17254;50.976;7.034;2022-10-16T01:08:21;12.70;99.90
30459;DHT22;17254;50.976;7.034;2022-10-16T01:08:44;12.70;99.90
30459;DHT22;17254;50.976;7.034;2022-10-16T01:09:11;12.70;99.90
30459;DHT22;17254;50.976;7.034;2022-10-16T01:09:36;12.70;99.90
30459;DHT22;17254;50.976;7.034;2022-10-16T01:10:05;12.70;99.90
30459;DHT22;17254;50.976;7.034;2022-10-16T01:10:27;12.70;99.90
30459;DHT22;17254;50.976;7.034;2022-10-16T01:10:54;12.70;99.90
30459;DHT22;17254;50.976;7.034;2022-10-16T01:11:19;12.70;99.90
30459;DHT22;17254;50.976;7.034;2022-10-16T01:11:41;12.80;99.90
30459;DHT22;17254;50.976;7.034;2022-10-16T01:12:04;12.80;99.90
30459;DHT22;17254;50.976;7.034;2022-10-16T01:12:28;12.80;99.90
30459;DHT22;17254;50.976;7.034;2022-10-16T01:12:50;12.80;99.90
30459;DHT22;17254;50.976;7.034;2022-10-16T01:13:07;12.80;99.90
30459;DHT22;17254;50.976;7.034;2022-10-16T01:13:29;12.80;99.90
30459;DHT22;17254;50.976;7.034;2022-10-16T01:13:51;12.80;99.90
30459;DHT22;17254;50.976;7.034;2022-10-16T01:14:14;12.80;99.90
30459;DHT22;17254;50.976;7.034;2022-10-16T01:14:42;12.80;99.90
30459;DHT22;17254;50.976;7.034;2022-10-16T01:15:08;12.80;99.90
30459;DHT22;17254;50.976;7.034;2022-10-16T01:15:29;12.70;99.90
30459;DHT22;17254;50.976;7.034;2022-10-16T01:15:50;12.70;99.90
30459;DHT22;17254;50.976;7.034;2022-10-16T01:16:14;12.70;99.90
30459;DHT22;17254;50.976;7.034;2022-10-16T01:16:36;12.70;99.90
30459;DHT22;17254;50.976;7.034;2022-10-16T01:16:58;12.70;99.90
30459;DHT22;17254;50.976;7.034;2022-10-16T01:17:18;12.70;99.90
30459;DHT22;17254;50.976;7.034;2022-10-16T01:17:41;12.70;99.90
30459;DHT22;17254;50.976;7.034;2022-10-16T01:18:01;12.70;99.90
30459;DHT22;17254;50.976;7.034;2022-10-16T01:18:24;12.70;99.90
30459;DHT22;17254;50.976;7.034;2022-10-16T01:18:46;12.70;99.90
30459;DHT22;17254;50.976;7.034;2022-10-16T01:19:09;12.70;99.90
30459;DHT22;17254;50.976;7.034;2022-10-16T01:19:40;12.80;99.90
30459;DHT22;17254;50.976;7.034;2022-10-16T01:20:09;12.80;99.90
30459;DHT22;17254;50.976;7.034;2022-10-16T01:20:29;12.80;99.90
30459;DHT22;17254;50.976;7.034;2022-10-16T01:20:51;12.80;99.90
30459;DHT22;17254;50.976;7.034;2022-10-16T01:21:14;12.80;99.90
30459;DHT22;17254;50.976;7.034;2022-10-16T01:21:33;12.80;99.90
30459;DHT22;17254;50.976;7.034;2022-10-16T01:21:51;12.80;99.90
30459;DHT22;17254;50.976;7.034;2022-10-16T01:22:08;12.80;99.90
30459;DHT22;17254;50.976;7.034;2022-10-16T01:22:33;12.80;99.90
30459;DHT22;17254;50.976;7.034;2022-10-16T01:23:04;12.80;99.90
30459;DHT22;17254;50.976;7.034;2022-10-16T01:23:28;12.80;99.90
30459;DHT22;17254;50.976;7.034;2022-10-16T01:23:55;12.80;99.90
30459;DHT22;17254;50.976;7.034;2022-10-16T01:24:17;12.80;99.90
30459;DHT22;17254;50.976;7.034;2022-10-16T01:24:45;12.80;99.90
30459;DHT22;17254;50.976;7.034;2022-10-16T01:25:06;12.70;99.90
30459;DHT22;17254;50.976;7.034;2022-10-16T01:25:30;12.70;99.90
30459;DHT22;17254;50.976;7.034;2022-10-16T01:26:24;12.60;99.90
30459;DHT22;17254;50.976;7.034;2022-10-16T01:27:07;12.70;99.90
30459;DHT22;17254;50.976;7.034;2022-10-16T01:27:25;12.70;99.90
30459;DHT22;17254;50.976;7.034;2022-10-16T01:27:45;12.70;99.90
30459;DHT22;17254;50.976;7.034;2022-10-16T01:28:04;12.80;99.90
30459;DHT22;17254;50.976;7.034;2022-10-16T01:28:27;12.80;99.90
30459;DHT22;17254;50.976;7.034;2022-10-16T01:28:49;12.80;99.90
30459;DHT22;17254;50.976;7.034;2022-10-16T01:29:09;12.70;99.90
30459;DHT22;17254;50.976;7.034;2022-10-16T01:29:34;12.70;99.90
30459;DHT22;17254;50.976;7.034;2022-10-16T01:29:58;12.70;99.90
30459;DHT22;17254;50.976;7.034;2022-10-16T01:30:21;12.70;99.90
30459;DHT22;17254;50.976;7.034;2022-10-16T01:30:37;12.70;99.90
30459;DHT22;17254;50.976;7.034;2022-10-16T01:30:58;12.80;99.90
30459;DHT22;17254;50.976;7.034;2022-10-16T01:31:18;12.80;99.90
30459;DHT22;17254;50.976;7.034;2022-10-16T01:31:39;12.80;99.90
30459;DHT22;17254;50.976;7.034;2022-10-16T01:32:00;12.80;99.90
30459;DHT22;17254;50.976;7.034;2022-10-16T01:32:20;12.80;99.90
30459;DHT22;17254;50.976;7.034;2022-10-16T01:32:40;12.80;99.90
30459;DHT22;17254;50.976;7.034;2022-10-16T01:33:01;12.80;99.90
30459;DHT22;17254;50.976;7.034;2022-10-16T01:33:20;12.80;99.90
30459;DHT22;17254;50.976;7.034;2022-10-16T01:33:40;12.80;99.90
30459;DHT22;17254;50.976;7.034;2022-10-16T01:34:02;12.80;99.90
30459;DHT22;17254;50.976;7.034;2022-10-16T01:34:22;12.70;99.90
30459;DHT22;17254;50.976;7.034;2022-10-16T01:34:47;12.80;99.90
30459;DHT22;17254;50.976;7.034;2022-10-16T01:35:07;12.80;99.90
30459;DHT22;17254;50.976;7.034;2022-10-16T01:35:29;12.70;99.90
30459;DHT22;17254;50.976;7.034;2022-10-16T01:35:49;12.70;99.90
30459;DHT22;17254;50.976;7.034;2022-10-16T01:36:11;12.70;99.90
30459;DHT22;17254;50.976;7.034;2022-10-16T01:36:33;12.70;99.90
30459;DHT22;17254;50.976;7.034;2022-10-16T01:36:53;12.70;99.90
30459;DHT22;17254;50.976;7.034;2022-10-16T01:37:15;12.80;99.90
30459;DHT22;17254;50.976;7.034;2022-10-16T01:37:36;12.70;99.90
30459;DHT22;17254;50.976;7.034;2022-10-16T01:37:56;12.70;99.90
30459;DHT22;17254;50.976;7.034;2022-10-16T01:38:17;12.70;99.90
30459;DHT22;17254;50.976;7.034;2022-10-16T01:38:36;12.70;99.90
30459;DHT22;17254;50.976;7.034;2022-10-16T01:38:57;12.70;99.90
30459;DHT22;17254;50.976;7.034;2022-10-16T01:39:20;12.70;99.90
30459;DHT22;17254;50.976;7.034;2022-10-16T01:39:39;12.70;99.90
30459;DHT22;17254;50.976;7.034;2022-10-16T01:39:59;12.70;99.90
30459;DHT22;17254;50.976;7.034;2022-10-16T01:40:18;12.70;99.90
30459;DHT22;17254;50.976;7.034;2022-10-16T01:40:39;12.70;99.90
30459;DHT22;17254;50.976;7.034;2022-10-16T01:40:59;12.70;99.90
30459;DHT22;17254;50.976;7.034;2022-10-16T01:41:21;12.70;99.90
30459;DHT22;17254;50.976;7.034;2022-10-16T01:41:44;12.70;99.90
30459;DHT22;17254;50.976;7.034;2022-10-16T01:42:04;12.70;99.90
30459;DHT22;17254;50.976;7.034;2022-10-16T01:42:27;12.70;99.90
30459;DHT22;17254;50.976;7.034;2022-10-16T01:42:46;12.70;99.90
30459;DHT22;17254;50.976;7.034;2022-10-16T01:43:06;12.70;99.90
30459;DHT22;17254;50.976;7.034;2022-10-16T01:43:25;12.70;99.90
30459;DHT22;17254;50.976;7.034;2022-10-16T01:43:45;12.70;99.90
30459;DHT22;17254;50.976;7.034;2022-10-16T01:44:05;12.70;99.90
30459;DHT22;17254;50.976;7.034;2022-10-16T01:44:25;12.70;99.90
30459;DHT22;17254;50.976;7.034;2022-10-16T01:44:43;12.70;99.90
30459;DHT22;17254;50.976;7.034;2022-10-16T01:45:02;12.70;99.90
30459;DHT22;17254;50.976;7.034;2022-10-16T01:45:22;12.70;99.90
30459;DHT22;17254;50.976;7.034;2022-10-16T01:45:40;12.70;99.90
30459;DHT22;17254;50.976;7.034;2022-10-16T01:45:57;12.70;99.90
30459;DHT22;17254;50.976;7.034;2022-10-16T01:46:17;12.70;99.90
30459;DHT22;17254;50.976;7.034;2022-10-16T01:46:36;12.70;99.90
30459;DHT22;17254;50.976;7.034;2022-10-16T01:46:54;12.70;99.90
30459;DHT22;17254;50.976;7.034;2022-10-16T01:47:10;12.70;99.90
30459;DHT22;17254;50.976;7.034;2022-10-16T01:47:30;12.70;99.90
30459;DHT22;17254;50.976;7.034;2022-10-16T01:47:49;12.70;99.90
30459;DHT22;17254;50.976;7.034;2022-10-16T01:48:07;12.80;99.90
30459;DHT22;17254;50.976;7.034;2022-10-16T01:48:25;12.70;99.90
30459;DHT22;17254;50.976;7.034;2022-10-16T01:48:41;12.70;99.90
30459;DHT22;17254;50.976;7.034;2022-10-16T01:48:57;12.80;99.90
30459;DHT22;17254;50.976;7.034;2022-10-16T01:49:16;12.80;99.90
30459;DHT22;17254;50.976;7.034;2022-10-16T01:49:34;12.80;99.90
30459;DHT22;17254;50.976;7.034;2022-10-16T01:49:51;12.70;99.90
30459;DHT22;17254;50.976;7.034;2022-10-16T01:50:08;12.80;99.90
30459;DHT22;17254;50.976;7.034;2022-10-16T01:50:26;12.80;99.90
30459;DHT22;17254;50.976;7.034;2022-10-16T01:50:59;12.80;99.90
30459;DHT22;17254;50.976;7.034;2022-10-16T01:51:17;12.80;99.90
30459;DHT22;17254;50.976;7.034;2022-10-16T01:51:34;12.80;99.90
30459;DHT22;17254;50.976;7.034;2022-10-16T01:51:54;12.80;99.90
30459;DHT22;17254;50.976;7.034;2022-10-16T01:52:15;12.70;99.90
30459;DHT22;17254;50.976;7.034;2022-10-16T01:52:37;12.70;99.90
30459;DHT22;17254;50.976;7.034;2022-10-16T01:52:55;12.70;99.90
30459;DHT22;17254;50.976;7.034;2022-10-16T01:53:13;12.70;99.90
30459;DHT22;17254;50.976;7.034;2022-10-16T01:53:30;12.70;99.90
30459;DHT22;17254;50.976;7.034;2022-10-16T01:53:53;12.60;99.90
30459;DHT22;17254;50.976;7.034;2022-10-16T01:54:09;12.60;99.90
30459;DHT22;17254;50.976;7.034;2022-10-16T01:54:28;12.60;99.90
30459;DHT22;17254;50.976;7.034;2022-10-16T01:54:47;12.60;99.90
30459;DHT22;17254;50.976;7.034;2022-10-16T01:55:08;12.60;99.90
30459;DHT22;17254;50.976;7.034;2022-10-16T01:55:29;12.60;99.90
30459;DHT22;17254;50.976;7.034;2022-10-16T01:55:47;12.60;99.90
30459;DHT22;17254;50.976;7.034;2022-10-16T01:56:07;12.60;99.90
30459;DHT22;17254;50.976;7.034;2022-10-16T01:56:24;12.60;99.90
30459;DHT22;17254;50.976;7.034;2022-10-16T01:56:41;12.60;99.90
30459;DHT22;17254;50.976;7.034;2022-10-16T01:56:59;12.70;99.90
30459;DHT22;17254;50.976;7.034;2022-10-16T01:57:16;12.60;99.90
30459;DHT22;17254;50.976;7.034;2022-10-16T01:57:38;12.70;99.90
30459;DHT22;17254;50.976;7.034;2022-10-16T01:57:57;12.60;99.90
30459;DHT22;17254;50.976;7.034;2022-10-16T01:58:14;12.60;99.90
30459;DHT22;17254;50.976;7.034;2022-10-16T01:58:33;12.60;99.90
30459;DHT22;17254;50.976;7.034;2022-10-16T01:58:54;12.60;99.90